sensor_id;sensor_type;location;lat;lon;timestamp;P1;durP1;ratioP1;P2;durP2;ratioP2
39750;SDS011;37579;51.074;17.004;2022-08-01T00:00:13;1.52;;;1.42;;
39750;SDS011;37579;51.074;17.004;2022-08-01T00:02:39;2.08;;;1.88;;
39750;SDS011;37579;51.074;17.004;2022-08-01T00:05:06;2.10;;;1.55;;
39750;SDS011;37579;51.074;17.004;2022-08-01T00:07:33;1.80;;;1.33;;
39750;SDS011;37579;51.074;17.004;2022-08-01T00:09:59;1.85;;;1.52;;
39750;SDS011;37579;51.074;17.004;2022-08-01T00:12:25;2.28;;;1.50;;
39750;SDS011;37579;51.074;17.004;2022-08-01T00:14:50;1.90;;;1.63;;
39750;SDS011;37579;51.074;17.004;2022-08-01T00:17:16;1.88;;;1.50;;
39750;SDS011;37579;51.074;17.004;2022-08-01T00:19:42;2.97;;;1.52;;
39750;SDS011;37579;51.074;17.004;2022-08-01T00:22:08;1.90;;;1.35;;
39750;SDS011;37579;51.074;17.004;2022-08-01T00:24:33;2.25;;;1.67;;
39750;SDS011;37579;51.074;17.004;2022-08-01T00:26:59;1.85;;;1.40;;
39750;SDS011;37579;51.074;17.004;2022-08-01T00:29:25;1.90;;;1.67;;
39750;SDS011;37579;51.074;17.004;2022-08-01T00:31:51;2.65;;;1.58;;
39750;SDS011;37579;51.074;17.004;2022-08-01T00:34:17;2.55;;;1.30;;
39750;SDS011;37579;51.074;17.004;2022-08-01T00:36:42;2.05;;;1.58;;
39750;SDS011;37579;51.074;17.004;2022-08-01T00:39:08;1.98;;;1.58;;
39750;SDS011;37579;51.074;17.004;2022-08-01T00:41:34;2.70;;;1.40;;
39750;SDS011;37579;51.074;17.004;2022-08-01T00:44:03;2.17;;;1.48;;
39750;SDS011;37579;51.074;17.004;2022-08-01T00:46:30;2.67;;;1.33;;
39750;SDS011;37579;51.074;17.004;2022-08-01T00:48:57;2.40;;;1.40;;
39750;SDS011;37579;51.074;17.004;2022-08-01T00:51:24;2.40;;;1.58;;
39750;SDS011;37579;51.074;17.004;2022-08-01T00:53:51;1.83;;;1.50;;
39750;SDS011;37579;51.074;17.004;2022-08-01T00:56:19;2.85;;;1.60;;
39750;SDS011;37579;51.074;17.004;2022-08-01T00:58:48;2.20;;;1.52;;
39750;SDS011;37579;51.074;17.004;2022-08-01T01:01:14;2.28;;;1.60;;
39750;SDS011;37579;51.074;17.004;2022-08-01T01:03:40;1.70;;;1.35;;
39750;SDS011;37579;51.074;17.004;2022-08-01T01:09:14;1.67;;;1.38;;
39750;SDS011;37579;51.074;17.004;2022-08-01T01:12:04;2.10;;;1.50;;
39750;SDS011;37579;51.074;17.004;2022-08-01T01:14:41;1.58;;;1.27;;
39750;SDS011;37579;51.074;17.004;2022-08-01T01:17:14;2.78;;;1.90;;
39750;SDS011;37579;51.074;17.004;2022-08-01T01:19:45;2.13;;;1.15;;
39750;SDS011;37579;51.074;17.004;2022-08-01T01:30:33;2.25;;;1.20;;
39750;SDS011;37579;51.074;17.004;2022-08-01T01:33:01;1.52;;;1.20;;
39750;SDS011;37579;51.074;17.004;2022-08-01T01:35:30;1.85;;;1.45;;
39750;SDS011;37579;51.074;17.004;2022-08-01T01:38:07;1.50;;;1.35;;
39750;SDS011;37579;51.074;17.004;2022-08-01T01:40:37;2.47;;;1.35;;
39750;SDS011;37579;51.074;17.004;2022-08-01T01:43:04;1.98;;;1.30;;
39750;SDS011;37579;51.074;17.004;2022-08-01T01:45:34;2.33;;;1.55;;
39750;SDS011;37579;51.074;17.004;2022-08-01T01:48:01;2.22;;;1.38;;
39750;SDS011;37579;51.074;17.004;2022-08-01T01:50:28;1.75;;;1.30;;
39750;SDS011;37579;51.074;17.004;2022-08-01T01:52:55;1.30;;;1.08;;
39750;SDS011;37579;51.074;17.004;2022-08-01T01:55:22;1.80;;;1.40;;
39750;SDS011;37579;51.074;17.004;2022-08-01T01:57:50;1.75;;;1.33;;
39750;SDS011;37579;51.074;17.004;2022-08-01T02:00:17;2.72;;;1.40;;
39750;SDS011;37579;51.074;17.004;2022-08-01T02:02:43;2.47;;;1.30;;
39750;SDS011;37579;51.074;17.004;2022-08-01T02:05:11;1.73;;;1.30;;
39750;SDS011;37579;51.074;17.004;2022-08-01T02:07:37;1.70;;;1.35;;
39750;SDS011;37579;51.074;17.004;2022-08-01T02:10:06;1.67;;;1.40;;
39750;SDS011;37579;51.074;17.004;2022-08-01T02:12:34;2.05;;;1.40;;
39750;SDS011;37579;51.074;17.004;2022-08-01T02:15:03;1.40;;;1.17;;
39750;SDS011;37579;51.074;17.004;2022-08-01T02:17:29;2.88;;;1.65;;
39750;SDS011;37579;51.074;17.004;2022-08-01T02:19:56;1.45;;;1.20;;
39750;SDS011;37579;51.074;17.004;2022-08-01T02:22:27;1.52;;;1.30;;
39750;SDS011;37579;51.074;17.004;2022-08-01T02:24:59;1.98;;;1.58;;
39750;SDS011;37579;51.074;17.004;2022-08-01T02:27:42;1.83;;;1.17;;
39750;SDS011;37579;51.074;17.004;2022-08-01T02:30:15;1.70;;;1.33;;
39750;SDS011;37579;51.074;17.004;2022-08-01T02:32:53;2.25;;;1.52;;
39750;SDS011;37579;51.074;17.004;2022-08-01T02:35:30;1.50;;;1.15;;
39750;SDS011;37579;51.074;17.004;2022-08-01T02:37:58;2.47;;;1.45;;
39750;SDS011;37579;51.074;17.004;2022-08-01T02:40:29;1.73;;;1.00;;
39750;SDS011;37579;51.074;17.004;2022-08-01T02:45:26;1.35;;;1.00;;
39750;SDS011;37579;51.074;17.004;2022-08-01T02:47:56;1.98;;;1.30;;
39750;SDS011;37579;51.074;17.004;2022-08-01T02:50:26;1.60;;;1.20;;
39750;SDS011;37579;51.074;17.004;2022-08-01T02:52:53;1.40;;;1.08;;
39750;SDS011;37579;51.074;17.004;2022-08-01T02:55:20;1.60;;;1.20;;
39750;SDS011;37579;51.074;17.004;2022-08-01T02:57:47;1.23;;;1.02;;
39750;SDS011;37579;51.074;17.004;2022-08-01T03:00:16;1.65;;;1.30;;
39750;SDS011;37579;51.074;17.004;2022-08-01T03:02:42;12.13;;;2.17;;
39750;SDS011;37579;51.074;17.004;2022-08-01T03:05:10;1.20;;;1.00;;
39750;SDS011;37579;51.074;17.004;2022-08-01T03:07:38;1.73;;;1.30;;
39750;SDS011;37579;51.074;17.004;2022-08-01T03:10:05;1.25;;;0.98;;
39750;SDS011;37579;51.074;17.004;2022-08-01T03:12:33;1.25;;;1.15;;
39750;SDS011;37579;51.074;17.004;2022-08-01T03:14:59;1.50;;;1.02;;
39750;SDS011;37579;51.074;17.004;2022-08-01T03:17:27;2.33;;;1.10;;
39750;SDS011;37579;51.074;17.004;2022-08-01T03:19:56;3.63;;;1.13;;
39750;SDS011;37579;51.074;17.004;2022-08-01T03:22:24;1.00;;;0.90;;
39750;SDS011;37579;51.074;17.004;2022-08-01T03:24:51;1.45;;;1.10;;
39750;SDS011;37579;51.074;17.004;2022-08-01T03:27:19;1.77;;;1.40;;
39750;SDS011;37579;51.074;17.004;2022-08-01T03:29:47;1.23;;;0.90;;
39750;SDS011;37579;51.074;17.004;2022-08-01T03:32:15;1.25;;;1.10;;
39750;SDS011;37579;51.074;17.004;2022-08-01T03:34:42;1.45;;;1.15;;
39750;SDS011;37579;51.074;17.004;2022-08-01T03:37:10;1.33;;;0.98;;
39750;SDS011;37579;51.074;17.004;2022-08-01T03:39:40;1.48;;;1.05;;
39750;SDS011;37579;51.074;17.004;2022-08-01T03:42:12;1.25;;;1.10;;
39750;SDS011;37579;51.074;17.004;2022-08-01T03:44:43;1.88;;;1.42;;
39750;SDS011;37579;51.074;17.004;2022-08-01T03:47:17;1.67;;;1.23;;
39750;SDS011;37579;51.074;17.004;2022-08-01T03:49:47;1.60;;;1.20;;
39750;SDS011;37579;51.074;17.004;2022-08-01T03:52:14;1.13;;;1.00;;
39750;SDS011;37579;51.074;17.004;2022-08-01T03:54:42;1.38;;;1.00;;
39750;SDS011;37579;51.074;17.004;2022-08-01T03:57:12;1.60;;;0.95;;
39750;SDS011;37579;51.074;17.004;2022-08-01T03:59:39;2.70;;;0.90;;
39750;SDS011;37579;51.074;17.004;2022-08-01T04:02:06;1.23;;;0.90;;
39750;SDS011;37579;51.074;17.004;2022-08-01T04:04:33;1.55;;;1.17;;
39750;SDS011;37579;51.074;17.004;2022-08-01T04:06:59;1.10;;;0.90;;
39750;SDS011;37579;51.074;17.004;2022-08-01T04:09:31;1.52;;;1.08;;
39750;SDS011;37579;51.074;17.004;2022-08-01T04:12:00;1.25;;;1.02;;
39750;SDS011;37579;51.074;17.004;2022-08-01T04:14:27;1.27;;;1.00;;
39750;SDS011;37579;51.074;17.004;2022-08-01T04:16:53;1.45;;;1.20;;
39750;SDS011;37579;51.074;17.004;2022-08-01T04:19:19;1.55;;;1.02;;
39750;SDS011;37579;51.074;17.004;2022-08-01T04:21:45;1.17;;;1.00;;
39750;SDS011;37579;51.074;17.004;2022-08-01T04:24:13;1.08;;;0.85;;
39750;SDS011;37579;51.074;17.004;2022-08-01T04:26:41;2.13;;;1.08;;
39750;SDS011;37579;51.074;17.004;2022-08-01T04:29:10;1.52;;;1.05;;
39750;SDS011;37579;51.074;17.004;2022-08-01T04:31:37;1.50;;;1.10;;
39750;SDS011;37579;51.074;17.004;2022-08-01T04:34:06;1.20;;;0.82;;
39750;SDS011;37579;51.074;17.004;2022-08-01T04:36:33;1.05;;;0.80;;
39750;SDS011;37579;51.074;17.004;2022-08-01T04:39:01;1.23;;;1.08;;
39750;SDS011;37579;51.074;17.004;2022-08-01T04:41:30;1.63;;;1.23;;
39750;SDS011;37579;51.074;17.004;2022-08-01T04:43:56;1.05;;;0.90;;
39750;SDS011;37579;51.074;17.004;2022-08-01T04:46:24;1.15;;;1.02;;
39750;SDS011;37579;51.074;17.004;2022-08-01T04:48:51;2.53;;;1.00;;
39750;SDS011;37579;51.074;17.004;2022-08-01T04:51:19;1.55;;;0.80;;
39750;SDS011;37579;51.074;17.004;2022-08-01T04:53:47;2.83;;;1.10;;
39750;SDS011;37579;51.074;17.004;2022-08-01T04:56:15;1.25;;;0.98;;
39750;SDS011;37579;51.074;17.004;2022-08-01T04:58:41;1.20;;;0.95;;
39750;SDS011;37579;51.074;17.004;2022-08-01T05:01:09;1.67;;;1.10;;
39750;SDS011;37579;51.074;17.004;2022-08-01T05:03:35;1.10;;;0.90;;
39750;SDS011;37579;51.074;17.004;2022-08-01T05:06:01;1.20;;;1.05;;
39750;SDS011;37579;51.074;17.004;2022-08-01T05:08:27;1.00;;;0.90;;
39750;SDS011;37579;51.074;17.004;2022-08-01T05:10:53;1.50;;;1.05;;
39750;SDS011;37579;51.074;17.004;2022-08-01T05:13:19;1.55;;;0.95;;
39750;SDS011;37579;51.074;17.004;2022-08-01T05:15:45;1.83;;;1.30;;
39750;SDS011;37579;51.074;17.004;2022-08-01T05:18:11;1.17;;;1.00;;
39750;SDS011;37579;51.074;17.004;2022-08-01T05:20:37;1.13;;;1.02;;
39750;SDS011;37579;51.074;17.004;2022-08-01T05:23:05;1.33;;;1.10;;
39750;SDS011;37579;51.074;17.004;2022-08-01T05:25:31;1.17;;;1.05;;
39750;SDS011;37579;51.074;17.004;2022-08-01T05:27:58;1.20;;;1.10;;
39750;SDS011;37579;51.074;17.004;2022-08-01T05:30:24;1.90;;;1.10;;
39750;SDS011;37579;51.074;17.004;2022-08-01T05:32:50;1.52;;;1.20;;
39750;SDS011;37579;51.074;17.004;2022-08-01T05:35:15;1.42;;;0.90;;
39750;SDS011;37579;51.074;17.004;2022-08-01T05:37:41;0.95;;;0.80;;
39750;SDS011;37579;51.074;17.004;2022-08-01T05:40:07;1.67;;;1.00;;
39750;SDS011;37579;51.074;17.004;2022-08-01T05:42:33;1.10;;;0.75;;
39750;SDS011;37579;51.074;17.004;2022-08-01T05:44:59;1.27;;;1.00;;
39750;SDS011;37579;51.074;17.004;2022-08-01T05:47:24;2.20;;;1.00;;
39750;SDS011;37579;51.074;17.004;2022-08-01T05:49:50;1.30;;;1.02;;
39750;SDS011;37579;51.074;17.004;2022-08-01T05:52:16;1.27;;;0.85;;
39750;SDS011;37579;51.074;17.004;2022-08-01T05:54:42;0.85;;;0.70;;
39750;SDS011;37579;51.074;17.004;2022-08-01T05:57:08;1.00;;;0.90;;
39750;SDS011;37579;51.074;17.004;2022-08-01T05:59:34;1.88;;;0.90;;
39750;SDS011;37579;51.074;17.004;2022-08-01T06:01:59;1.63;;;0.98;;
39750;SDS011;37579;51.074;17.004;2022-08-01T06:04:25;1.50;;;0.90;;
39750;SDS011;37579;51.074;17.004;2022-08-01T06:06:51;2.58;;;1.10;;
39750;SDS011;37579;51.074;17.004;2022-08-01T06:09:17;1.90;;;1.00;;
39750;SDS011;37579;51.074;17.004;2022-08-01T06:11:42;2.55;;;1.20;;
39750;SDS011;37579;51.074;17.004;2022-08-01T06:14:08;1.52;;;1.20;;
39750;SDS011;37579;51.074;17.004;2022-08-01T06:16:34;2.28;;;0.90;;
39750;SDS011;37579;51.074;17.004;2022-08-01T06:18:59;1.10;;;0.98;;
39750;SDS011;37579;51.074;17.004;2022-08-01T06:21:25;1.42;;;1.13;;
39750;SDS011;37579;51.074;17.004;2022-08-01T06:23:51;1.30;;;1.20;;
39750;SDS011;37579;51.074;17.004;2022-08-01T06:26:17;2.33;;;0.88;;
39750;SDS011;37579;51.074;17.004;2022-08-01T06:28:43;2.00;;;1.10;;
39750;SDS011;37579;51.074;17.004;2022-08-01T06:31:09;1.65;;;1.10;;
39750;SDS011;37579;51.074;17.004;2022-08-01T06:33:37;2.38;;;1.35;;
39750;SDS011;37579;51.074;17.004;2022-08-01T06:36:03;2.72;;;1.55;;
39750;SDS011;37579;51.074;17.004;2022-08-01T06:38:29;1.85;;;1.00;;
39750;SDS011;37579;51.074;17.004;2022-08-01T06:40:54;2.80;;;1.48;;
39750;SDS011;37579;51.074;17.004;2022-08-01T06:43:20;2.67;;;1.85;;
39750;SDS011;37579;51.074;17.004;2022-08-01T06:45:46;3.10;;;1.25;;
39750;SDS011;37579;51.074;17.004;2022-08-01T06:48:12;1.45;;;1.20;;
39750;SDS011;37579;51.074;17.004;2022-08-01T06:50:38;3.83;;;1.60;;
39750;SDS011;37579;51.074;17.004;2022-08-01T06:53:04;4.47;;;1.38;;
39750;SDS011;37579;51.074;17.004;2022-08-01T06:55:30;3.00;;;1.48;;
39750;SDS011;37579;51.074;17.004;2022-08-01T06:57:56;3.95;;;1.83;;
39750;SDS011;37579;51.074;17.004;2022-08-01T07:00:22;3.50;;;1.85;;
39750;SDS011;37579;51.074;17.004;2022-08-01T07:02:50;3.50;;;2.20;;
39750;SDS011;37579;51.074;17.004;2022-08-01T07:05:20;2.42;;;1.73;;
39750;SDS011;37579;51.074;17.004;2022-08-01T07:07:46;2.90;;;2.00;;
39750;SDS011;37579;51.074;17.004;2022-08-01T07:10:12;3.22;;;1.90;;
39750;SDS011;37579;51.074;17.004;2022-08-01T07:12:38;3.90;;;1.73;;
39750;SDS011;37579;51.074;17.004;2022-08-01T07:15:06;4.68;;;2.03;;
39750;SDS011;37579;51.074;17.004;2022-08-01T07:17:40;2.38;;;1.55;;
39750;SDS011;37579;51.074;17.004;2022-08-01T07:20:08;1.85;;;1.67;;
39750;SDS011;37579;51.074;17.004;2022-08-01T07:22:35;3.97;;;2.20;;
39750;SDS011;37579;51.074;17.004;2022-08-01T07:25:03;1.75;;;1.60;;
39750;SDS011;37579;51.074;17.004;2022-08-01T07:27:29;3.03;;;1.98;;
39750;SDS011;37579;51.074;17.004;2022-08-01T07:29:55;3.65;;;1.85;;
39750;SDS011;37579;51.074;17.004;2022-08-01T07:32:21;5.22;;;2.15;;
39750;SDS011;37579;51.074;17.004;2022-08-01T07:34:46;2.92;;;1.80;;
39750;SDS011;37579;51.074;17.004;2022-08-01T07:37:12;4.60;;;1.95;;
39750;SDS011;37579;51.074;17.004;2022-08-01T07:39:38;3.00;;;2.00;;
39750;SDS011;37579;51.074;17.004;2022-08-01T07:42:04;2.53;;;2.10;;
39750;SDS011;37579;51.074;17.004;2022-08-01T07:44:29;3.70;;;1.75;;
39750;SDS011;37579;51.074;17.004;2022-08-01T07:46:55;6.97;;;2.75;;
39750;SDS011;37579;51.074;17.004;2022-08-01T07:49:21;4.07;;;2.47;;
39750;SDS011;37579;51.074;17.004;2022-08-01T07:51:47;7.00;;;3.10;;
39750;SDS011;37579;51.074;17.004;2022-08-01T07:54:13;3.88;;;2.78;;
39750;SDS011;37579;51.074;17.004;2022-08-01T07:56:39;3.60;;;2.33;;
39750;SDS011;37579;51.074;17.004;2022-08-01T07:59:04;4.35;;;2.85;;
39750;SDS011;37579;51.074;17.004;2022-08-01T08:01:30;3.70;;;2.20;;
39750;SDS011;37579;51.074;17.004;2022-08-01T08:03:56;4.32;;;2.47;;
39750;SDS011;37579;51.074;17.004;2022-08-01T08:06:21;4.18;;;2.55;;
39750;SDS011;37579;51.074;17.004;2022-08-01T08:08:47;3.45;;;2.10;;
39750;SDS011;37579;51.074;17.004;2022-08-01T08:11:13;3.15;;;2.13;;
39750;SDS011;37579;51.074;17.004;2022-08-01T08:13:39;5.95;;;2.20;;
39750;SDS011;37579;51.074;17.004;2022-08-01T08:16:04;4.25;;;2.35;;
39750;SDS011;37579;51.074;17.004;2022-08-01T08:18:30;1.95;;;1.75;;
39750;SDS011;37579;51.074;17.004;2022-08-01T08:20:56;2.08;;;1.88;;
39750;SDS011;37579;51.074;17.004;2022-08-01T08:23:22;3.10;;;2.25;;
39750;SDS011;37579;51.074;17.004;2022-08-01T08:26:06;3.75;;;2.17;;
39750;SDS011;37579;51.074;17.004;2022-08-01T08:28:32;2.83;;;2.20;;
39750;SDS011;37579;51.074;17.004;2022-08-01T08:30:57;4.70;;;2.40;;
39750;SDS011;37579;51.074;17.004;2022-08-01T08:33:23;4.47;;;2.10;;
39750;SDS011;37579;51.074;17.004;2022-08-01T08:35:49;3.95;;;1.95;;
39750;SDS011;37579;51.074;17.004;2022-08-01T08:38:14;4.38;;;2.40;;
39750;SDS011;37579;51.074;17.004;2022-08-01T08:40:40;2.35;;;2.15;;
39750;SDS011;37579;51.074;17.004;2022-08-01T08:43:06;2.53;;;2.05;;
39750;SDS011;37579;51.074;17.004;2022-08-01T08:45:33;3.13;;;2.10;;
39750;SDS011;37579;51.074;17.004;2022-08-01T08:47:59;2.72;;;2.10;;
39750;SDS011;37579;51.074;17.004;2022-08-01T08:50:25;3.22;;;2.00;;
39750;SDS011;37579;51.074;17.004;2022-08-01T08:52:52;3.95;;;2.20;;
39750;SDS011;37579;51.074;17.004;2022-08-01T08:55:20;3.58;;;2.42;;
39750;SDS011;37579;51.074;17.004;2022-08-01T08:57:48;2.47;;;1.92;;
39750;SDS011;37579;51.074;17.004;2022-08-01T09:00:14;3.20;;;2.40;;
39750;SDS011;37579;51.074;17.004;2022-08-01T09:02:42;3.53;;;2.00;;
39750;SDS011;37579;51.074;17.004;2022-08-01T09:05:09;3.67;;;2.38;;
39750;SDS011;37579;51.074;17.004;2022-08-01T09:07:35;3.10;;;2.10;;
39750;SDS011;37579;51.074;17.004;2022-08-01T09:10:02;2.38;;;2.17;;
39750;SDS011;37579;51.074;17.004;2022-08-01T09:12:28;2.80;;;2.00;;
39750;SDS011;37579;51.074;17.004;2022-08-01T09:14:54;5.45;;;2.00;;
39750;SDS011;37579;51.074;17.004;2022-08-01T09:17:20;2.88;;;2.10;;
39750;SDS011;37579;51.074;17.004;2022-08-01T09:19:47;3.13;;;2.17;;
39750;SDS011;37579;51.074;17.004;2022-08-01T09:22:19;4.07;;;2.22;;
39750;SDS011;37579;51.074;17.004;2022-08-01T09:24:58;2.58;;;2.20;;
39750;SDS011;37579;51.074;17.004;2022-08-01T09:27:24;3.92;;;2.40;;
39750;SDS011;37579;51.074;17.004;2022-08-01T09:29:53;4.05;;;2.28;;
39750;SDS011;37579;51.074;17.004;2022-08-01T09:32:20;4.15;;;2.13;;
39750;SDS011;37579;51.074;17.004;2022-08-01T09:34:45;2.13;;;2.03;;
39750;SDS011;37579;51.074;17.004;2022-08-01T09:37:11;3.92;;;2.28;;
39750;SDS011;37579;51.074;17.004;2022-08-01T09:39:42;3.92;;;2.63;;
39750;SDS011;37579;51.074;17.004;2022-08-01T09:42:20;3.42;;;2.40;;
39750;SDS011;37579;51.074;17.004;2022-08-01T09:44:51;4.20;;;2.20;;
39750;SDS011;37579;51.074;17.004;2022-08-01T09:47:18;2.40;;;2.10;;
39750;SDS011;37579;51.074;17.004;2022-08-01T09:49:46;2.78;;;2.05;;
39750;SDS011;37579;51.074;17.004;2022-08-01T09:52:20;2.63;;;2.20;;
39750;SDS011;37579;51.074;17.004;2022-08-01T09:54:58;3.28;;;2.28;;
39750;SDS011;37579;51.074;17.004;2022-08-01T09:57:24;4.40;;;2.40;;
39750;SDS011;37579;51.074;17.004;2022-08-01T09:59:52;4.03;;;2.40;;
39750;SDS011;37579;51.074;17.004;2022-08-01T10:04:53;3.55;;;2.40;;
39750;SDS011;37579;51.074;17.004;2022-08-01T10:07:20;2.58;;;2.13;;
39750;SDS011;37579;51.074;17.004;2022-08-01T10:09:47;4.25;;;2.33;;
39750;SDS011;37579;51.074;17.004;2022-08-01T10:12:15;4.13;;;2.30;;
39750;SDS011;37579;51.074;17.004;2022-08-01T10:14:47;3.08;;;2.42;;
39750;SDS011;37579;51.074;17.004;2022-08-01T10:17:19;4.75;;;2.95;;
39750;SDS011;37579;51.074;17.004;2022-08-01T10:19:46;2.22;;;1.90;;
39750;SDS011;37579;51.074;17.004;2022-08-01T10:22:15;4.05;;;2.05;;
39750;SDS011;37579;51.074;17.004;2022-08-01T10:24:44;3.15;;;2.05;;
39750;SDS011;37579;51.074;17.004;2022-08-01T10:27:13;2.63;;;2.20;;
39750;SDS011;37579;51.074;17.004;2022-08-01T10:29:50;2.20;;;2.00;;
39750;SDS011;37579;51.074;17.004;2022-08-01T10:32:21;2.92;;;2.00;;
39750;SDS011;37579;51.074;17.004;2022-08-01T10:34:49;3.25;;;2.47;;
39750;SDS011;37579;51.074;17.004;2022-08-01T10:37:15;3.65;;;1.95;;
39750;SDS011;37579;51.074;17.004;2022-08-01T10:39:42;2.67;;;2.03;;
39750;SDS011;37579;51.074;17.004;2022-08-01T10:42:09;2.80;;;2.58;;
39750;SDS011;37579;51.074;17.004;2022-08-01T10:44:36;2.28;;;2.00;;
39750;SDS011;37579;51.074;17.004;2022-08-01T10:47:08;2.38;;;1.88;;
39750;SDS011;37579;51.074;17.004;2022-08-01T10:49:39;1.92;;;1.73;;
39750;SDS011;37579;51.074;17.004;2022-08-01T10:52:18;3.40;;;2.17;;
39750;SDS011;37579;51.074;17.004;2022-08-01T10:54:45;2.53;;;2.15;;
39750;SDS011;37579;51.074;17.004;2022-08-01T10:57:11;1.75;;;1.65;;
39750;SDS011;37579;51.074;17.004;2022-08-01T10:59:47;3.33;;;1.85;;
39750;SDS011;37579;51.074;17.004;2022-08-01T11:02:25;2.50;;;2.10;;
39750;SDS011;37579;51.074;17.004;2022-08-01T11:04:56;4.00;;;2.00;;
39750;SDS011;37579;51.074;17.004;2022-08-01T11:07:42;2.13;;;1.90;;
39750;SDS011;37579;51.074;17.004;2022-08-01T11:12:58;3.05;;;2.38;;
39750;SDS011;37579;51.074;17.004;2022-08-01T11:15:27;3.45;;;2.50;;
39750;SDS011;37579;51.074;17.004;2022-08-01T11:17:53;2.58;;;2.30;;
39750;SDS011;37579;51.074;17.004;2022-08-01T11:20:26;3.35;;;2.00;;
39750;SDS011;37579;51.074;17.004;2022-08-01T11:30:42;3.90;;;2.35;;
39750;SDS011;37579;51.074;17.004;2022-08-01T11:33:13;3.75;;;2.47;;
39750;SDS011;37579;51.074;17.004;2022-08-01T11:38:48;2.95;;;2.55;;
39750;SDS011;37579;51.074;17.004;2022-08-01T11:41:35;2.67;;;2.35;;
39750;SDS011;37579;51.074;17.004;2022-08-01T11:52:14;2.90;;;2.60;;
39750;SDS011;37579;51.074;17.004;2022-08-01T11:54:42;3.30;;;2.53;;
39750;SDS011;37579;51.074;17.004;2022-08-01T11:59:38;2.95;;;2.30;;
39750;SDS011;37579;51.074;17.004;2022-08-01T12:02:16;6.30;;;2.88;;
39750;SDS011;37579;51.074;17.004;2022-08-01T12:04:44;2.60;;;2.40;;
39750;SDS011;37579;51.074;17.004;2022-08-01T12:07:16;4.25;;;2.67;;
39750;SDS011;37579;51.074;17.004;2022-08-01T12:09:43;4.57;;;2.38;;
39750;SDS011;37579;51.074;17.004;2022-08-01T12:12:09;2.60;;;2.40;;
39750;SDS011;37579;51.074;17.004;2022-08-01T12:14:35;4.03;;;3.03;;
39750;SDS011;37579;51.074;17.004;2022-08-01T12:17:01;3.65;;;2.58;;
39750;SDS011;37579;51.074;17.004;2022-08-01T12:19:27;3.17;;;2.40;;
39750;SDS011;37579;51.074;17.004;2022-08-01T12:22:10;3.25;;;2.65;;
39750;SDS011;37579;51.074;17.004;2022-08-01T12:24:40;2.72;;;2.40;;
39750;SDS011;37579;51.074;17.004;2022-08-01T12:27:09;3.42;;;2.60;;
39750;SDS011;37579;51.074;17.004;2022-08-01T12:29:38;3.83;;;2.72;;
39750;SDS011;37579;51.074;17.004;2022-08-01T12:32:22;2.47;;;2.25;;
39750;SDS011;37579;51.074;17.004;2022-08-01T12:34:50;3.45;;;2.72;;
39750;SDS011;37579;51.074;17.004;2022-08-01T12:37:17;3.67;;;2.90;;
39750;SDS011;37579;51.074;17.004;2022-08-01T12:39:44;4.45;;;2.60;;
39750;SDS011;37579;51.074;17.004;2022-08-01T12:42:11;3.45;;;2.40;;
39750;SDS011;37579;51.074;17.004;2022-08-01T12:44:38;3.72;;;2.28;;
39750;SDS011;37579;51.074;17.004;2022-08-01T12:47:05;1.95;;;1.85;;
39750;SDS011;37579;51.074;17.004;2022-08-01T12:49:32;2.38;;;1.80;;
39750;SDS011;37579;51.074;17.004;2022-08-01T12:52:00;3.75;;;1.90;;
39750;SDS011;37579;51.074;17.004;2022-08-01T12:54:26;3.10;;;1.73;;
39750;SDS011;37579;51.074;17.004;2022-08-01T12:56:52;3.03;;;2.38;;
39750;SDS011;37579;51.074;17.004;2022-08-01T12:59:19;5.20;;;2.30;;
39750;SDS011;37579;51.074;17.004;2022-08-01T13:01:51;4.47;;;2.40;;
39750;SDS011;37579;51.074;17.004;2022-08-01T13:04:17;3.42;;;2.40;;
39750;SDS011;37579;51.074;17.004;2022-08-01T13:06:44;3.38;;;2.60;;
39750;SDS011;37579;51.074;17.004;2022-08-01T13:09:10;4.93;;;2.63;;
39750;SDS011;37579;51.074;17.004;2022-08-01T13:11:38;5.35;;;2.50;;
39750;SDS011;37579;51.074;17.004;2022-08-01T13:14:08;3.28;;;2.63;;
39750;SDS011;37579;51.074;17.004;2022-08-01T13:16:45;2.70;;;2.30;;
39750;SDS011;37579;51.074;17.004;2022-08-01T13:19:11;3.83;;;2.55;;
39750;SDS011;37579;51.074;17.004;2022-08-01T13:21:37;2.80;;;2.60;;
39750;SDS011;37579;51.074;17.004;2022-08-01T13:24:04;5.50;;;2.67;;
39750;SDS011;37579;51.074;17.004;2022-08-01T13:29:08;2.55;;;2.22;;
39750;SDS011;37579;51.074;17.004;2022-08-01T13:31:36;2.35;;;2.15;;
39750;SDS011;37579;51.074;17.004;2022-08-01T13:34:02;3.65;;;2.58;;
39750;SDS011;37579;51.074;17.004;2022-08-01T13:36:28;4.75;;;2.50;;
39750;SDS011;37579;51.074;17.004;2022-08-01T13:38:59;3.47;;;2.63;;
39750;SDS011;37579;51.074;17.004;2022-08-01T13:41:44;2.97;;;2.40;;
39750;SDS011;37579;51.074;17.004;2022-08-01T13:44:11;2.65;;;2.38;;
39750;SDS011;37579;51.074;17.004;2022-08-01T13:46:38;3.35;;;2.45;;
39750;SDS011;37579;51.074;17.004;2022-08-01T13:49:05;3.05;;;2.53;;
39750;SDS011;37579;51.074;17.004;2022-08-01T13:51:31;3.50;;;2.58;;
39750;SDS011;37579;51.074;17.004;2022-08-01T13:53:58;3.15;;;2.45;;
39750;SDS011;37579;51.074;17.004;2022-08-01T13:56:24;3.55;;;2.20;;
39750;SDS011;37579;51.074;17.004;2022-08-01T13:58:52;2.10;;;2.00;;
39750;SDS011;37579;51.074;17.004;2022-08-01T14:01:18;2.33;;;2.13;;
39750;SDS011;37579;51.074;17.004;2022-08-01T14:03:44;4.45;;;2.45;;
39750;SDS011;37579;51.074;17.004;2022-08-01T14:06:11;2.40;;;2.20;;
39750;SDS011;37579;51.074;17.004;2022-08-01T14:08:39;1.95;;;1.80;;
39750;SDS011;37579;51.074;17.004;2022-08-01T14:11:05;1.90;;;1.80;;
39750;SDS011;37579;51.074;17.004;2022-08-01T14:13:30;3.38;;;1.85;;
39750;SDS011;37579;51.074;17.004;2022-08-01T14:15:58;2.78;;;1.80;;
39750;SDS011;37579;51.074;17.004;2022-08-01T14:18:24;2.20;;;1.70;;
39750;SDS011;37579;51.074;17.004;2022-08-01T14:20:51;3.17;;;1.77;;
39750;SDS011;37579;51.074;17.004;2022-08-01T14:23:17;2.38;;;2.17;;
39750;SDS011;37579;51.074;17.004;2022-08-01T14:25:43;2.10;;;1.90;;
39750;SDS011;37579;51.074;17.004;2022-08-01T14:28:09;2.40;;;1.90;;
39750;SDS011;37579;51.074;17.004;2022-08-01T14:30:35;3.25;;;1.92;;
39750;SDS011;37579;51.074;17.004;2022-08-01T14:33:01;2.03;;;1.88;;
39750;SDS011;37579;51.074;17.004;2022-08-01T14:35:27;2.22;;;2.03;;
39750;SDS011;37579;51.074;17.004;2022-08-01T14:37:53;2.47;;;2.20;;
39750;SDS011;37579;51.074;17.004;2022-08-01T14:40:18;3.40;;;2.00;;
39750;SDS011;37579;51.074;17.004;2022-08-01T14:42:44;2.75;;;1.95;;
39750;SDS011;37579;51.074;17.004;2022-08-01T14:45:10;3.28;;;1.70;;
39750;SDS011;37579;51.074;17.004;2022-08-01T14:47:38;2.10;;;1.90;;
39750;SDS011;37579;51.074;17.004;2022-08-01T14:50:05;2.17;;;1.77;;
39750;SDS011;37579;51.074;17.004;2022-08-01T14:52:35;4.60;;;1.92;;
39750;SDS011;37579;51.074;17.004;2022-08-01T14:55:02;2.63;;;1.90;;
39750;SDS011;37579;51.074;17.004;2022-08-01T14:57:29;3.65;;;2.00;;
39750;SDS011;37579;51.074;17.004;2022-08-01T14:59:55;2.20;;;1.88;;
39750;SDS011;37579;51.074;17.004;2022-08-01T15:02:21;3.22;;;1.85;;
39750;SDS011;37579;51.074;17.004;2022-08-01T15:04:47;6.18;;;1.88;;
39750;SDS011;37579;51.074;17.004;2022-08-01T15:07:14;2.05;;;1.80;;
39750;SDS011;37579;51.074;17.004;2022-08-01T15:09:40;2.30;;;1.70;;
39750;SDS011;37579;51.074;17.004;2022-08-01T15:12:07;2.65;;;1.80;;
39750;SDS011;37579;51.074;17.004;2022-08-01T15:14:33;1.90;;;1.75;;
39750;SDS011;37579;51.074;17.004;2022-08-01T15:17:15;2.55;;;1.90;;
39750;SDS011;37579;51.074;17.004;2022-08-01T15:19:55;1.88;;;1.60;;